sensor_id;sensor_type;location;lat;lon;timestamp;P1;durP1;ratioP1;P2;durP2;ratioP2
5499;SDS011;2772;42.700;23.304;2023-04-12T00:00:43;11.77;;;8.63;;
5499;SDS011;2772;42.700;23.304;2023-04-12T00:03:10;12.13;;;9.10;;
5499;SDS011;2772;42.700;23.304;2023-04-12T00:05:37;11.20;;;8.43;;
5499;SDS011;2772;42.700;23.304;2023-04-12T00:08:04;12.40;;;8.53;;
5499;SDS011;2772;42.700;23.304;2023-04-12T00:10:30;20.20;;;9.50;;
5499;SDS011;2772;42.700;23.304;2023-04-12T00:12:57;15.20;;;9.63;;
5499;SDS011;2772;42.700;23.304;2023-04-12T00:15:24;14.07;;;9.40;;
5499;SDS011;2772;42.700;23.304;2023-04-12T00:17:52;15.40;;;9.83;;
5499;SDS011;2772;42.700;23.304;2023-04-12T00:20:19;21.80;;;13.07;;
5499;SDS011;2772;42.700;23.304;2023-04-12T00:22:46;43.67;;;20.23;;
5499;SDS011;2772;42.700;23.304;2023-04-12T00:25:12;15.37;;;10.20;;
5499;SDS011;2772;42.700;23.304;2023-04-12T00:27:39;13.87;;;8.73;;
5499;SDS011;2772;42.700;23.304;2023-04-12T00:30:06;15.53;;;10.70;;
5499;SDS011;2772;42.700;23.304;2023-04-12T00:32:33;19.90;;;12.10;;
5499;SDS011;2772;42.700;23.304;2023-04-12T00:35:02;19.50;;;12.13;;
5499;SDS011;2772;42.700;23.304;2023-04-12T00:37:29;12.20;;;8.30;;
5499;SDS011;2772;42.700;23.304;2023-04-12T00:39:55;16.77;;;10.80;;
5499;SDS011;2772;42.700;23.304;2023-04-12T00:42:22;16.80;;;10.70;;
5499;SDS011;2772;42.700;23.304;2023-04-12T00:44:49;18.10;;;10.60;;
5499;SDS011;2772;42.700;23.304;2023-04-12T00:47:16;13.70;;;10.07;;
5499;SDS011;2772;42.700;23.304;2023-04-12T00:49:42;16.80;;;10.47;;
5499;SDS011;2772;42.700;23.304;2023-04-12T00:52:11;31.30;;;17.50;;
5499;SDS011;2772;42.700;23.304;2023-04-12T00:54:39;17.80;;;11.00;;
5499;SDS011;2772;42.700;23.304;2023-04-12T00:57:07;15.83;;;10.90;;
5499;SDS011;2772;42.700;23.304;2023-04-12T00:59:34;15.07;;;9.80;;
5499;SDS011;2772;42.700;23.304;2023-04-12T01:02:01;14.20;;;10.13;;
5499;SDS011;2772;42.700;23.304;2023-04-12T01:04:28;19.00;;;12.23;;
5499;SDS011;2772;42.700;23.304;2023-04-12T01:07:04;18.23;;;10.70;;
5499;SDS011;2772;42.700;23.304;2023-04-12T01:09:42;14.70;;;10.40;;
5499;SDS011;2772;42.700;23.304;2023-04-12T01:12:17;20.30;;;12.73;;
5499;SDS011;2772;42.700;23.304;2023-04-12T01:14:53;16.53;;;11.20;;
5499;SDS011;2772;42.700;23.304;2023-04-12T01:17:27;27.57;;;13.93;;
5499;SDS011;2772;42.700;23.304;2023-04-12T01:19:57;16.80;;;10.50;;
5499;SDS011;2772;42.700;23.304;2023-04-12T01:22:42;22.67;;;13.70;;
5499;SDS011;2772;42.700;23.304;2023-04-12T01:25:29;13.23;;;9.73;;
5499;SDS011;2772;42.700;23.304;2023-04-12T01:28:06;15.47;;;9.93;;
5499;SDS011;2772;42.700;23.304;2023-04-12T01:30:35;19.27;;;11.60;;
5499;SDS011;2772;42.700;23.304;2023-04-12T01:33:04;17.20;;;11.32;;
5499;SDS011;2772;42.700;23.304;2023-04-12T01:35:35;14.70;;;10.27;;
5499;SDS011;2772;42.700;23.304;2023-04-12T01:38:03;15.13;;;10.70;;
5499;SDS011;2772;42.700;23.304;2023-04-12T01:40:31;24.63;;;9.90;;
5499;SDS011;2772;42.700;23.304;2023-04-12T01:43:06;16.47;;;10.30;;
5499;SDS011;2772;42.700;23.304;2023-04-12T01:45:34;16.23;;;9.80;;
5499;SDS011;2772;42.700;23.304;2023-04-12T01:48:01;17.40;;;10.90;;
5499;SDS011;2772;42.700;23.304;2023-04-12T01:50:33;14.60;;;10.47;;
5499;SDS011;2772;42.700;23.304;2023-04-12T01:53:07;17.10;;;11.50;;
5499;SDS011;2772;42.700;23.304;2023-04-12T01:55:38;18.00;;;11.53;;
5499;SDS011;2772;42.700;23.304;2023-04-12T01:58:08;19.30;;;11.20;;
5499;SDS011;2772;42.700;23.304;2023-04-12T02:00:37;19.63;;;10.67;;
5499;SDS011;2772;42.700;23.304;2023-04-12T02:03:07;18.40;;;11.17;;
5499;SDS011;2772;42.700;23.304;2023-04-12T02:05:36;19.07;;;11.77;;
5499;SDS011;2772;42.700;23.304;2023-04-12T02:08:03;17.50;;;10.40;;
5499;SDS011;2772;42.700;23.304;2023-04-12T02:10:31;20.90;;;11.20;;
5499;SDS011;2772;42.700;23.304;2023-04-12T02:13:00;15.80;;;10.60;;
5499;SDS011;2772;42.700;23.304;2023-04-12T02:15:29;21.00;;;11.20;;
5499;SDS011;2772;42.700;23.304;2023-04-12T02:17:56;16.47;;;10.80;;
5499;SDS011;2772;42.700;23.304;2023-04-12T02:20:23;18.10;;;11.50;;
5499;SDS011;2772;42.700;23.304;2023-04-12T02:22:51;16.13;;;10.47;;
5499;SDS011;2772;42.700;23.304;2023-04-12T02:25:18;19.73;;;10.97;;
5499;SDS011;2772;42.700;23.304;2023-04-12T02:27:45;23.03;;;12.17;;
5499;SDS011;2772;42.700;23.304;2023-04-12T02:30:12;17.07;;;11.37;;
5499;SDS011;2772;42.700;23.304;2023-04-12T02:32:41;17.93;;;10.80;;
5499;SDS011;2772;42.700;23.304;2023-04-12T02:35:12;18.73;;;11.47;;
5499;SDS011;2772;42.700;23.304;2023-04-12T02:37:42;18.37;;;11.70;;
5499;SDS011;2772;42.700;23.304;2023-04-12T02:40:10;23.30;;;11.63;;
5499;SDS011;2772;42.700;23.304;2023-04-12T02:42:38;18.40;;;11.57;;
5499;SDS011;2772;42.700;23.304;2023-04-12T02:45:05;20.47;;;11.50;;
5499;SDS011;2772;42.700;23.304;2023-04-12T02:47:32;17.60;;;11.70;;
5499;SDS011;2772;42.700;23.304;2023-04-12T02:50:00;21.17;;;11.90;;
5499;SDS011;2772;42.700;23.304;2023-04-12T02:52:27;17.43;;;11.60;;
5499;SDS011;2772;42.700;23.304;2023-04-12T02:54:54;16.77;;;10.43;;
5499;SDS011;2772;42.700;23.304;2023-04-12T02:57:22;22.97;;;11.93;;
5499;SDS011;2772;42.700;23.304;2023-04-12T02:59:49;19.17;;;11.40;;
5499;SDS011;2772;42.700;23.304;2023-04-12T03:02:17;17.07;;;10.70;;
5499;SDS011;2772;42.700;23.304;2023-04-12T03:04:43;18.90;;;11.00;;
5499;SDS011;2772;42.700;23.304;2023-04-12T03:07:12;18.70;;;11.30;;
5499;SDS011;2772;42.700;23.304;2023-04-12T03:09:39;20.23;;;11.70;;
5499;SDS011;2772;42.700;23.304;2023-04-12T03:12:06;18.30;;;11.83;;
5499;SDS011;2772;42.700;23.304;2023-04-12T03:14:33;17.93;;;10.90;;
5499;SDS011;2772;42.700;23.304;2023-04-12T03:17:00;16.27;;;10.70;;
5499;SDS011;2772;42.700;23.304;2023-04-12T03:19:27;30.20;;;11.03;;
5499;SDS011;2772;42.700;23.304;2023-04-12T03:21:57;28.13;;;12.13;;
5499;SDS011;2772;42.700;23.304;2023-04-12T03:24:25;20.10;;;11.87;;
5499;SDS011;2772;42.700;23.304;2023-04-12T03:26:52;19.50;;;12.30;;
5499;SDS011;2772;42.700;23.304;2023-04-12T03:29:19;21.50;;;13.70;;
5499;SDS011;2772;42.700;23.304;2023-04-12T03:31:46;21.43;;;12.73;;
5499;SDS011;2772;42.700;23.304;2023-04-12T03:34:12;24.40;;;14.33;;
5499;SDS011;2772;42.700;23.304;2023-04-12T03:36:39;19.20;;;11.90;;
5499;SDS011;2772;42.700;23.304;2023-04-12T03:39:06;24.20;;;13.43;;
5499;SDS011;2772;42.700;23.304;2023-04-12T03:41:34;30.83;;;13.37;;
5499;SDS011;2772;42.700;23.304;2023-04-12T03:44:01;22.10;;;13.00;;
5499;SDS011;2772;42.700;23.304;2023-04-12T03:46:28;23.13;;;14.30;;
5499;SDS011;2772;42.700;23.304;2023-04-12T03:48:55;23.20;;;14.37;;
5499;SDS011;2772;42.700;23.304;2023-04-12T03:51:23;22.40;;;13.37;;
5499;SDS011;2772;42.700;23.304;2023-04-12T03:53:51;20.63;;;13.37;;
5499;SDS011;2772;42.700;23.304;2023-04-12T03:56:18;24.57;;;13.53;;
5499;SDS011;2772;42.700;23.304;2023-04-12T03:58:46;30.17;;;15.13;;
5499;SDS011;2772;42.700;23.304;2023-04-12T04:01:13;19.97;;;12.80;;
5499;SDS011;2772;42.700;23.304;2023-04-12T04:03:41;24.03;;;14.50;;
5499;SDS011;2772;42.700;23.304;2023-04-12T04:06:09;24.37;;;13.70;;
5499;SDS011;2772;42.700;23.304;2023-04-12T04:08:36;20.40;;;13.37;;
5499;SDS011;2772;42.700;23.304;2023-04-12T04:11:03;29.83;;;14.50;;
5499;SDS011;2772;42.700;23.304;2023-04-12T04:13:30;23.97;;;14.50;;
5499;SDS011;2772;42.700;23.304;2023-04-12T04:16:01;20.50;;;12.93;;
5499;SDS011;2772;42.700;23.304;2023-04-12T04:18:28;23.77;;;13.43;;
5499;SDS011;2772;42.700;23.304;2023-04-12T04:20:55;24.03;;;13.13;;
5499;SDS011;2772;42.700;23.304;2023-04-12T04:23:22;30.00;;;15.27;;
5499;SDS011;2772;42.700;23.304;2023-04-12T04:25:49;28.50;;;14.33;;
5499;SDS011;2772;42.700;23.304;2023-04-12T04:28:18;22.23;;;13.63;;
5499;SDS011;2772;42.700;23.304;2023-04-12T04:30:45;22.33;;;12.50;;
5499;SDS011;2772;42.700;23.304;2023-04-12T04:33:13;23.20;;;14.00;;
5499;SDS011;2772;42.700;23.304;2023-04-12T04:35:40;28.03;;;13.63;;
5499;SDS011;2772;42.700;23.304;2023-04-12T04:38:10;27.57;;;13.60;;
5499;SDS011;2772;42.700;23.304;2023-04-12T04:40:37;27.37;;;14.50;;
5499;SDS011;2772;42.700;23.304;2023-04-12T04:43:04;30.23;;;14.53;;
5499;SDS011;2772;42.700;23.304;2023-04-12T04:45:31;29.03;;;14.27;;
5499;SDS011;2772;42.700;23.304;2023-04-12T04:47:57;31.43;;;13.33;;
5499;SDS011;2772;42.700;23.304;2023-04-12T04:50:26;30.50;;;13.30;;
5499;SDS011;2772;42.700;23.304;2023-04-12T04:52:53;24.73;;;12.97;;
5499;SDS011;2772;42.700;23.304;2023-04-12T04:55:20;19.03;;;12.53;;
5499;SDS011;2772;42.700;23.304;2023-04-12T04:57:49;21.63;;;13.40;;
5499;SDS011;2772;42.700;23.304;2023-04-12T05:00:16;25.10;;;13.23;;
5499;SDS011;2772;42.700;23.304;2023-04-12T05:02:43;21.33;;;13.00;;
5499;SDS011;2772;42.700;23.304;2023-04-12T05:05:10;27.00;;;12.93;;
5499;SDS011;2772;42.700;23.304;2023-04-12T05:07:39;19.40;;;11.90;;
5499;SDS011;2772;42.700;23.304;2023-04-12T05:10:07;15.17;;;11.03;;
5499;SDS011;2772;42.700;23.304;2023-04-12T05:12:35;19.27;;;11.90;;
5499;SDS011;2772;42.700;23.304;2023-04-12T05:15:02;17.03;;;11.67;;
5499;SDS011;2772;42.700;23.304;2023-04-12T05:17:29;20.17;;;10.87;;
5499;SDS011;2772;42.700;23.304;2023-04-12T05:19:58;17.23;;;11.10;;
5499;SDS011;2772;42.700;23.304;2023-04-12T05:22:25;12.50;;;8.43;;
5499;SDS011;2772;42.700;23.304;2023-04-12T05:24:54;15.87;;;9.30;;
5499;SDS011;2772;42.700;23.304;2023-04-12T05:27:21;15.40;;;9.67;;
5499;SDS011;2772;42.700;23.304;2023-04-12T05:29:48;16.53;;;10.77;;
5499;SDS011;2772;42.700;23.304;2023-04-12T05:32:15;18.80;;;10.83;;
5499;SDS011;2772;42.700;23.304;2023-04-12T05:34:41;24.70;;;8.67;;
5499;SDS011;2772;42.700;23.304;2023-04-12T05:37:08;12.97;;;8.83;;
5499;SDS011;2772;42.700;23.304;2023-04-12T05:39:35;13.57;;;8.13;;
5499;SDS011;2772;42.700;23.304;2023-04-12T05:42:03;16.80;;;7.97;;
5499;SDS011;2772;42.700;23.304;2023-04-12T05:44:30;14.60;;;9.43;;
5499;SDS011;2772;42.700;23.304;2023-04-12T05:46:57;17.47;;;7.23;;
5499;SDS011;2772;42.700;23.304;2023-04-12T05:49:25;16.87;;;7.20;;
5499;SDS011;2772;42.700;23.304;2023-04-12T05:51:54;16.33;;;7.70;;
5499;SDS011;2772;42.700;23.304;2023-04-12T05:54:20;27.67;;;7.40;;
5499;SDS011;2772;42.700;23.304;2023-04-12T05:56:47;13.60;;;6.43;;
5499;SDS011;2772;42.700;23.304;2023-04-12T05:59:15;11.60;;;7.00;;
5499;SDS011;2772;42.700;23.304;2023-04-12T06:01:42;14.63;;;7.33;;
5499;SDS011;2772;42.700;23.304;2023-04-12T06:04:09;9.30;;;6.30;;
5499;SDS011;2772;42.700;23.304;2023-04-12T06:06:36;9.67;;;6.57;;
5499;SDS011;2772;42.700;23.304;2023-04-12T06:09:03;7.40;;;5.93;;
5499;SDS011;2772;42.700;23.304;2023-04-12T06:11:29;11.53;;;7.13;;
5499;SDS011;2772;42.700;23.304;2023-04-12T06:13:57;16.47;;;6.43;;
5499;SDS011;2772;42.700;23.304;2023-04-12T06:16:26;8.77;;;5.73;;
5499;SDS011;2772;42.700;23.304;2023-04-12T06:18:52;13.53;;;7.30;;
5499;SDS011;2772;42.700;23.304;2023-04-12T06:21:19;9.80;;;6.30;;
5499;SDS011;2772;42.700;23.304;2023-04-12T06:23:46;8.73;;;6.20;;
5499;SDS011;2772;42.700;23.304;2023-04-12T06:26:13;9.00;;;6.33;;
5499;SDS011;2772;42.700;23.304;2023-04-12T06:28:42;6.93;;;5.23;;
5499;SDS011;2772;42.700;23.304;2023-04-12T06:31:08;16.63;;;6.83;;
5499;SDS011;2772;42.700;23.304;2023-04-12T06:33:37;8.97;;;5.80;;
5499;SDS011;2772;42.700;23.304;2023-04-12T06:36:05;10.30;;;4.87;;
5499;SDS011;2772;42.700;23.304;2023-04-12T06:38:32;9.33;;;6.57;;
5499;SDS011;2772;42.700;23.304;2023-04-12T06:40:59;11.10;;;5.50;;
5499;SDS011;2772;42.700;23.304;2023-04-12T06:43:26;14.90;;;8.17;;
5499;SDS011;2772;42.700;23.304;2023-04-12T06:45:53;12.13;;;5.23;;
5499;SDS011;2772;42.700;23.304;2023-04-12T06:48:21;12.43;;;7.53;;
5499;SDS011;2772;42.700;23.304;2023-04-12T06:50:49;10.67;;;7.03;;
5499;SDS011;2772;42.700;23.304;2023-04-12T06:53:16;11.57;;;6.93;;
5499;SDS011;2772;42.700;23.304;2023-04-12T06:55:42;11.10;;;4.87;;
5499;SDS011;2772;42.700;23.304;2023-04-12T06:58:09;12.10;;;5.60;;
5499;SDS011;2772;42.700;23.304;2023-04-12T07:00:36;10.60;;;6.37;;
5499;SDS011;2772;42.700;23.304;2023-04-12T07:03:02;12.10;;;5.57;;
5499;SDS011;2772;42.700;23.304;2023-04-12T07:05:29;8.73;;;5.10;;
5499;SDS011;2772;42.700;23.304;2023-04-12T07:07:57;4.93;;;4.53;;
5499;SDS011;2772;42.700;23.304;2023-04-12T07:10:24;5.13;;;4.73;;
5499;SDS011;2772;42.700;23.304;2023-04-12T07:12:51;6.80;;;5.20;;
5499;SDS011;2772;42.700;23.304;2023-04-12T07:15:17;5.70;;;5.10;;
5499;SDS011;2772;42.700;23.304;2023-04-12T07:17:44;9.07;;;4.40;;
5499;SDS011;2772;42.700;23.304;2023-04-12T07:20:11;6.33;;;5.30;;
5499;SDS011;2772;42.700;23.304;2023-04-12T07:22:38;10.90;;;4.57;;
5499;SDS011;2772;42.700;23.304;2023-04-12T07:25:06;9.20;;;6.43;;
5499;SDS011;2772;42.700;23.304;2023-04-12T07:27:35;5.90;;;5.27;;
5499;SDS011;2772;42.700;23.304;2023-04-12T07:30:01;8.70;;;5.93;;
5499;SDS011;2772;42.700;23.304;2023-04-12T07:32:28;12.13;;;6.27;;
5499;SDS011;2772;42.700;23.304;2023-04-12T07:34:55;11.70;;;7.57;;
5499;SDS011;2772;42.700;23.304;2023-04-12T07:37:22;9.43;;;6.13;;
5499;SDS011;2772;42.700;23.304;2023-04-12T07:39:49;7.93;;;5.50;;
5499;SDS011;2772;42.700;23.304;2023-04-12T07:42:17;5.77;;;5.20;;
5499;SDS011;2772;42.700;23.304;2023-04-12T07:44:43;8.17;;;5.30;;
5499;SDS011;2772;42.700;23.304;2023-04-12T07:47:10;5.60;;;4.50;;
5499;SDS011;2772;42.700;23.304;2023-04-12T07:49:37;4.50;;;4.20;;
5499;SDS011;2772;42.700;23.304;2023-04-12T07:52:03;11.73;;;4.10;;
5499;SDS011;2772;42.700;23.304;2023-04-12T07:54:30;4.30;;;3.90;;
5499;SDS011;2772;42.700;23.304;2023-04-12T07:56:57;6.40;;;3.60;;
5499;SDS011;2772;42.700;23.304;2023-04-12T07:59:26;4.13;;;3.73;;
5499;SDS011;2772;42.700;23.304;2023-04-12T08:01:53;13.50;;;4.70;;
5499;SDS011;2772;42.700;23.304;2023-04-12T08:04:19;6.97;;;4.53;;
5499;SDS011;2772;42.700;23.304;2023-04-12T08:06:46;4.17;;;3.43;;
5499;SDS011;2772;42.700;23.304;2023-04-12T08:09:13;6.33;;;4.37;;
5499;SDS011;2772;42.700;23.304;2023-04-12T08:11:39;11.30;;;3.67;;
5499;SDS011;2772;42.700;23.304;2023-04-12T08:14:06;4.47;;;4.07;;
5499;SDS011;2772;42.700;23.304;2023-04-12T08:16:35;3.63;;;3.23;;
5499;SDS011;2772;42.700;23.304;2023-04-12T08:19:02;3.13;;;2.90;;
5499;SDS011;2772;42.700;23.304;2023-04-12T08:21:29;3.03;;;2.90;;
5499;SDS011;2772;42.700;23.304;2023-04-12T08:23:56;3.40;;;3.17;;
5499;SDS011;2772;42.700;23.304;2023-04-12T08:26:22;3.93;;;2.83;;
5499;SDS011;2772;42.700;23.304;2023-04-12T08:28:50;15.10;;;3.20;;
5499;SDS011;2772;42.700;23.304;2023-04-12T08:31:17;2.70;;;2.50;;
5499;SDS011;2772;42.700;23.304;2023-04-12T08:33:45;5.90;;;3.20;;
5499;SDS011;2772;42.700;23.304;2023-04-12T08:36:12;3.20;;;2.60;;
5499;SDS011;2772;42.700;23.304;2023-04-12T08:38:39;2.43;;;1.67;;
5499;SDS011;2772;42.700;23.304;2023-04-12T08:41:06;4.53;;;3.00;;
5499;SDS011;2772;42.700;23.304;2023-04-12T08:43:33;3.33;;;2.30;;
5499;SDS011;2772;42.700;23.304;2023-04-12T08:46:02;4.60;;;2.63;;
5499;SDS011;2772;42.700;23.304;2023-04-12T08:48:31;3.43;;;2.03;;
5499;SDS011;2772;42.700;23.304;2023-04-12T08:51:00;6.60;;;2.63;;
5499;SDS011;2772;42.700;23.304;2023-04-12T08:53:27;5.20;;;2.50;;
5499;SDS011;2772;42.700;23.304;2023-04-12T08:55:54;2.67;;;2.47;;
5499;SDS011;2772;42.700;23.304;2023-04-12T08:58:20;2.60;;;2.40;;
5499;SDS011;2772;42.700;23.304;2023-04-12T09:00:49;5.07;;;2.63;;
5499;SDS011;2772;42.700;23.304;2023-04-12T09:03:16;2.80;;;1.90;;
5499;SDS011;2772;42.700;23.304;2023-04-12T09:05:43;5.67;;;2.50;;
5499;SDS011;2772;42.700;23.304;2023-04-12T09:08:11;2.30;;;2.10;;
5499;SDS011;2772;42.700;23.304;2023-04-12T09:10:37;3.50;;;1.67;;
5499;SDS011;2772;42.700;23.304;2023-04-12T09:13:04;6.53;;;2.80;;
5499;SDS011;2772;42.700;23.304;2023-04-12T09:15:32;2.30;;;2.13;;
5499;SDS011;2772;42.700;23.304;2023-04-12T09:18:06;2.60;;;2.40;;
5499;SDS011;2772;42.700;23.304;2023-04-12T09:20:34;2.13;;;2.00;;
5499;SDS011;2772;42.700;23.304;2023-04-12T09:23:13;1.93;;;1.67;;
5499;SDS011;2772;42.700;23.304;2023-04-12T09:25:42;1.57;;;1.33;;
5499;SDS011;2772;42.700;23.304;2023-04-12T09:28:22;1.70;;;1.60;;
5499;SDS011;2772;42.700;23.304;2023-04-12T09:30:50;1.80;;;1.70;;
5499;SDS011;2772;42.700;23.304;2023-04-12T09:33:18;1.70;;;1.37;;
5499;SDS011;2772;42.700;23.304;2023-04-12T09:35:45;1.97;;;1.87;;
5499;SDS011;2772;42.700;23.304;2023-04-12T09:38:13;3.20;;;1.80;;
5499;SDS011;2772;42.700;23.304;2023-04-12T09:40:41;3.63;;;2.03;;
5499;SDS011;2772;42.700;23.304;2023-04-12T09:43:07;8.73;;;2.80;;
5499;SDS011;2772;42.700;23.304;2023-04-12T09:45:35;1.50;;;1.20;;
5499;SDS011;2772;42.700;23.304;2023-04-12T09:48:04;2.60;;;2.00;;
5499;SDS011;2772;42.700;23.304;2023-04-12T09:50:32;1.70;;;1.60;;
5499;SDS011;2772;42.700;23.304;2023-04-12T09:53:00;3.10;;;2.10;;
5499;SDS011;2772;42.700;23.304;2023-04-12T09:55:29;2.50;;;2.30;;
5499;SDS011;2772;42.700;23.304;2023-04-12T09:58:00;1.70;;;1.60;;
5499;SDS011;2772;42.700;23.304;2023-04-12T10:00:29;8.20;;;1.93;;
5499;SDS011;2772;42.700;23.304;2023-04-12T10:02:58;2.63;;;1.60;;
5499;SDS011;2772;42.700;23.304;2023-04-12T10:05:26;4.30;;;2.60;;
5499;SDS011;2772;42.700;23.304;2023-04-12T10:07:53;6.20;;;1.70;;
5499;SDS011;2772;42.700;23.304;2023-04-12T10:10:21;5.90;;;1.60;;
5499;SDS011;2772;42.700;23.304;2023-04-12T10:12:49;2.07;;;1.30;;
5499;SDS011;2772;42.700;23.304;2023-04-12T10:15:16;4.07;;;1.80;;
5499;SDS011;2772;42.700;23.304;2023-04-12T10:17:46;3.77;;;0.93;;
5499;SDS011;2772;42.700;23.304;2023-04-12T10:20:14;1.80;;;1.27;;
5499;SDS011;2772;42.700;23.304;2023-04-12T10:22:43;4.27;;;1.80;;
5499;SDS011;2772;42.700;23.304;2023-04-12T10:25:11;1.43;;;1.33;;
5499;SDS011;2772;42.700;23.304;2023-04-12T10:27:40;1.93;;;1.60;;
5499;SDS011;2772;42.700;23.304;2023-04-12T10:30:25;5.77;;;1.50;;
5499;SDS011;2772;42.700;23.304;2023-04-12T10:35:48;4.37;;;1.47;;
5499;SDS011;2772;42.700;23.304;2023-04-12T10:38:16;2.37;;;1.43;;
5499;SDS011;2772;42.700;23.304;2023-04-12T10:43:35;1.43;;;1.20;;
5499;SDS011;2772;42.700;23.304;2023-04-12T10:46:04;3.73;;;1.40;;
5499;SDS011;2772;42.700;23.304;2023-04-12T10:48:31;3.23;;;1.60;;
5499;SDS011;2772;42.700;23.304;2023-04-12T10:51:11;2.23;;;1.90;;
5499;SDS011;2772;42.700;23.304;2023-04-12T10:53:40;3.63;;;1.10;;
5499;SDS011;2772;42.700;23.304;2023-04-12T10:59:01;2.00;;;1.80;;
5499;SDS011;2772;42.700;23.304;2023-04-12T11:01:30;4.60;;;1.50;;
5499;SDS011;2772;42.700;23.304;2023-04-12T11:04:07;6.70;;;1.40;;
5499;SDS011;2772;42.700;23.304;2023-04-12T11:06:41;3.93;;;1.07;;
5499;SDS011;2772;42.700;23.304;2023-04-12T11:09:21;3.97;;;1.20;;
5499;SDS011;2772;42.700;23.304;2023-04-12T11:11:49;4.60;;;1.27;;
5499;SDS011;2772;42.700;23.304;2023-04-12T11:14:16;3.03;;;1.20;;
5499;SDS011;2772;42.700;23.304;2023-04-12T11:19:49;1.50;;;1.10;;
5499;SDS011;2772;42.700;23.304;2023-04-12T11:22:19;2.93;;;1.57;;
5499;SDS011;2772;42.700;23.304;2023-04-12T11:24:47;5.67;;;1.50;;
5499;SDS011;2772;42.700;23.304;2023-04-12T11:27:15;4.70;;;1.33;;
5499;SDS011;2772;42.700;23.304;2023-04-12T11:29:44;11.43;;;1.20;;
5499;SDS011;2772;42.700;23.304;2023-04-12T11:32:14;2.20;;;1.13;;
5499;SDS011;2772;42.700;23.304;2023-04-12T11:34:42;2.67;;;1.20;;
5499;SDS011;2772;42.700;23.304;2023-04-12T11:37:10;3.73;;;1.93;;
5499;SDS011;2772;42.700;23.304;2023-04-12T11:39:38;2.37;;;0.90;;
5499;SDS011;2772;42.700;23.304;2023-04-12T11:42:07;3.23;;;1.17;;
5499;SDS011;2772;42.700;23.304;2023-04-12T11:44:39;1.60;;;1.03;;
5499;SDS011;2772;42.700;23.304;2023-04-12T11:47:11;7.03;;;1.30;;
5499;SDS011;2772;42.700;23.304;2023-04-12T11:49:43;2.90;;;1.23;;
5499;SDS011;2772;42.700;23.304;2023-04-12T11:52:11;5.13;;;1.27;;
5499;SDS011;2772;42.700;23.304;2023-04-12T11:54:43;1.50;;;1.40;;
5499;SDS011;2772;42.700;23.304;2023-04-12T11:57:11;9.70;;;2.10;;
5499;SDS011;2772;42.700;23.304;2023-04-12T11:59:39;3.40;;;1.50;;
5499;SDS011;2772;42.700;23.304;2023-04-12T12:02:08;1.70;;;1.60;;
5499;SDS011;2772;42.700;23.304;2023-04-12T12:04:36;1.70;;;1.40;;
5499;SDS011;2772;42.700;23.304;2023-04-12T12:07:04;10.53;;;1.80;;
5499;SDS011;2772;42.700;23.304;2023-04-12T12:09:32;1.40;;;1.30;;
5499;SDS011;2772;42.700;23.304;2023-04-12T12:12:01;1.40;;;1.20;;
5499;SDS011;2772;42.700;23.304;2023-04-12T12:14:31;5.60;;;1.30;;
5499;SDS011;2772;42.700;23.304;2023-04-12T12:17:00;6.50;;;3.23;;
5499;SDS011;2772;42.700;23.304;2023-04-12T12:19:27;2.53;;;1.10;;
5499;SDS011;2772;42.700;23.304;2023-04-12T12:24:49;4.00;;;1.97;;
5499;SDS011;2772;42.700;23.304;2023-04-12T12:27:17;1.50;;;1.40;;
5499;SDS011;2772;42.700;23.304;2023-04-12T12:29:47;4.70;;;1.10;;
5499;SDS011;2772;42.700;23.304;2023-04-12T12:32:16;1.37;;;1.17;;
5499;SDS011;2772;42.700;23.304;2023-04-12T12:34:49;2.07;;;1.10;;
5499;SDS011;2772;42.700;23.304;2023-04-12T12:37:21;1.67;;;0.90;;
5499;SDS011;2772;42.700;23.304;2023-04-12T12:39:59;1.23;;;1.13;;
5499;SDS011;2772;42.700;23.304;2023-04-12T12:42:32;3.13;;;1.27;;
5499;SDS011;2772;42.700;23.304;2023-04-12T12:44:59;1.20;;;1.10;;
5499;SDS011;2772;42.700;23.304;2023-04-12T12:47:28;3.00;;;1.30;;
5499;SDS011;2772;42.700;23.304;2023-04-12T12:49:55;7.23;;;1.50;;
5499;SDS011;2772;42.700;23.304;2023-04-12T12:52:23;1.87;;;1.50;;
5499;SDS011;2772;42.700;23.304;2023-04-12T12:54:50;3.53;;;1.93;;
5499;SDS011;2772;42.700;23.304;2023-04-12T12:57:16;6.73;;;1.37;;
5499;SDS011;2772;42.700;23.304;2023-04-12T12:59:43;1.40;;;1.07;;
5499;SDS011;2772;42.700;23.304;2023-04-12T13:02:10;1.80;;;1.70;;
5499;SDS011;2772;42.700;23.304;2023-04-12T13:04:39;2.73;;;2.50;;
5499;SDS011;2772;42.700;23.304;2023-04-12T13:07:06;1.80;;;1.40;;
5499;SDS011;2772;42.700;23.304;2023-04-12T13:09:34;2.93;;;2.30;;
5499;SDS011;2772;42.700;23.304;2023-04-12T13:12:00;4.40;;;1.50;;
5499;SDS011;2772;42.700;23.304;2023-04-12T13:14:27;4.17;;;1.97;;
5499;SDS011;2772;42.700;23.304;2023-04-12T13:16:54;3.07;;;1.50;;
5499;SDS011;2772;42.700;23.304;2023-04-12T13:19:21;3.03;;;1.67;;
5499;SDS011;2772;42.700;23.304;2023-04-12T13:21:48;4.30;;;1.30;;
5499;SDS011;2772;42.700;23.304;2023-04-12T13:24:14;1.40;;;1.10;;
5499;SDS011;2772;42.700;23.304;2023-04-12T13:26:42;1.53;;;1.43;;
5499;SDS011;2772;42.700;23.304;2023-04-12T13:29:09;3.90;;;1.37;;
5499;SDS011;2772;42.700;23.304;2023-04-12T13:31:36;1.87;;;1.67;;
5499;SDS011;2772;42.700;23.304;2023-04-12T13:34:02;9.60;;;3.70;;
5499;SDS011;2772;42.700;23.304;2023-04-12T13:36:29;4.83;;;2.40;;
5499;SDS011;2772;42.700;23.304;2023-04-12T13:38:57;2.10;;;1.53;;
5499;SDS011;2772;42.700;23.304;2023-04-12T13:41:24;5.13;;;1.90;;
5499;SDS011;2772;42.700;23.304;2023-04-12T13:43:52;5.60;;;1.53;;
5499;SDS011;2772;42.700;23.304;2023-04-12T13:46:19;3.57;;;2.27;;
5499;SDS011;2772;42.700;23.304;2023-04-12T13:48:45;3.47;;;1.70;;
5499;SDS011;2772;42.700;23.304;2023-04-12T13:51:12;7.90;;;5.07;;
5499;SDS011;2772;42.700;23.304;2023-04-12T13:53:39;1.63;;;1.20;;
5499;SDS011;2772;42.700;23.304;2023-04-12T13:56:06;2.87;;;1.50;;
5499;SDS011;2772;42.700;23.304;2023-04-12T13:58:33;1.60;;;1.50;;
5499;SDS011;2772;42.700;23.304;2023-04-12T14:01:01;1.60;;;1.47;;
5499;SDS011;2772;42.700;23.304;2023-04-12T14:03:28;3.20;;;3.00;;
5499;SDS011;2772;42.700;23.304;2023-04-12T14:05:54;1.60;;;0.93;;
5499;SDS011;2772;42.700;23.304;2023-04-12T14:08:21;1.97;;;1.20;;
5499;SDS011;2772;42.700;23.304;2023-04-12T14:10:48;1.60;;;1.40;;
5499;SDS011;2772;42.700;23.304;2023-04-12T14:13:14;1.50;;;1.40;;
5499;SDS011;2772;42.700;23.304;2023-04-12T14:15:41;2.30;;;1.80;;
5499;SDS011;2772;42.700;23.304;2023-04-12T14:18:09;1.50;;;1.40;;
5499;SDS011;2772;42.700;23.304;2023-04-12T14:20:36;1.50;;;1.40;;
5499;SDS011;2772;42.700;23.304;2023-04-12T14:23:02;2.40;;;1.77;;
5499;SDS011;2772;42.700;23.304;2023-04-12T14:25:29;2.70;;;2.50;;
5499;SDS011;2772;42.700;23.304;2023-04-12T14:27:56;1.73;;;1.63;;
5499;SDS011;2772;42.700;23.304;2023-04-12T14:30:22;2.97;;;1.33;;
5499;SDS011;2772;42.700;23.304;2023-04-12T14:32:50;2.27;;;1.90;;
5499;SDS011;2772;42.700;23.304;2023-04-12T14:35:18;1.67;;;1.57;;
5499;SDS011;2772;42.700;23.304;2023-04-12T14:37:44;1.43;;;1.33;;
5499;SDS011;2772;42.700;23.304;2023-04-12T14:40:12;3.00;;;1.43;;
5499;SDS011;2772;42.700;23.304;2023-04-12T14:42:39;7.43;;;1.90;;
5499;SDS011;2772;42.700;23.304;2023-04-12T14:45:06;1.60;;;1.50;;
5499;SDS011;2772;42.700;23.304;2023-04-12T14:47:34;5.00;;;1.90;;
5499;SDS011;2772;42.700;23.304;2023-04-12T14:50:00;2.57;;;1.50;;
5499;SDS011;2772;42.700;23.304;2023-04-12T14:52:29;2.10;;;1.90;;
5499;SDS011;2772;42.700;23.304;2023-04-12T14:54:56;7.03;;;4.57;;
5499;SDS011;2772;42.700;23.304;2023-04-12T14:57:22;2.70;;;1.67;;
5499;SDS011;2772;42.700;23.304;2023-04-12T14:59:49;8.87;;;5.77;;
5499;SDS011;2772;42.700;23.304;2023-04-12T15:02:16;3.40;;;1.43;;
5499;SDS011;2772;42.700;23.304;2023-04-12T15:04:43;1.80;;;1.70;;
5499;SDS011;2772;42.700;23.304;2023-04-12T15:07:13;1.03;;;0.93;;
5499;SDS011;2772;42.700;23.304;2023-04-12T15:09:41;15.10;;;6.00;;